createdAt,value
2023-02-16T00:00:46.073Z,124.23
2023-02-16T00:03:21.852Z,99.67
2023-02-16T00:05:49.639Z,61.43
2023-02-16T00:08:17.603Z,53.70
2023-02-16T00:11:04.696Z,86.53
2023-02-16T00:13:44.848Z,69.87
2023-02-16T00:16:15.183Z,78.73
2023-02-16T00:18:42.821Z,123.30
2023-02-16T00:21:10.752Z,93.47
2023-02-16T00:23:38.961Z,82.23
2023-02-16T00:26:12.987Z,49.07
2023-02-16T00:28:40.491Z,84.40
2023-02-16T00:31:23.985Z,125.37
2023-02-16T00:33:51.517Z,55.20
2023-02-16T00:36:21.737Z,36.57
2023-02-16T00:38:49.108Z,39.67
2023-02-16T00:41:41.723Z,39.87
2023-02-16T00:44:23.768Z,46.23
2023-02-16T00:46:51.061Z,41.97
2023-02-16T00:49:20.081Z,52.00
2023-02-16T00:51:49.192Z,45.37
2023-02-16T00:54:16.865Z,41.73
2023-02-16T00:56:45.516Z,49.20
2023-02-16T00:59:25.422Z,44.93
2023-02-16T01:01:52.810Z,39.50
2023-02-16T01:04:23.838Z,41.23
2023-02-16T01:07:09.628Z,36.97
2023-02-16T01:09:55.640Z,38.17
2023-02-16T01:12:23.084Z,38.17
2023-02-16T01:14:55.280Z,37.97
2023-02-16T01:17:24.707Z,39.50
2023-02-16T01:19:54.593Z,41.63
2023-02-16T01:22:21.873Z,37.17
2023-02-16T01:24:49.213Z,49.10
2023-02-16T01:27:16.552Z,44.77
2023-02-16T01:29:45.870Z,39.77
2023-02-16T01:32:13.503Z,42.97
2023-02-16T01:34:40.932Z,40.90
2023-02-16T01:37:15.435Z,41.73
2023-02-16T01:39:44.304Z,36.63
2023-02-16T01:42:20.610Z,35.87
2023-02-16T01:44:58.330Z,39.37
2023-02-16T01:47:38.128Z,37.30
2023-02-16T01:50:16.212Z,34.73
2023-02-16T01:52:48.408Z,33.53
2023-02-16T01:55:27.336Z,35.90
2023-02-16T01:58:18.875Z,34.37
2023-02-16T02:00:49.186Z,37.00
2023-02-16T02:03:53.765Z,29.17
2023-02-16T02:06:34.646Z,37.23
2023-02-16T02:09:10.964Z,29.47
2023-02-16T02:12:05.269Z,29.83
2023-02-16T02:14:38.339Z,30.80
2023-02-16T02:17:09.796Z,35.97
2023-02-16T02:20:00.682Z,44.17
2023-02-16T02:22:55.951Z,37.00
2023-02-16T02:25:41.493Z,39.30
2023-02-16T02:28:24.764Z,40.00
2023-02-16T02:31:14.498Z,42.37
2023-02-16T02:33:53.929Z,38.23
2023-02-16T02:36:30.369Z,36.53
2023-02-16T02:39:37.555Z,32.73
2023-02-16T02:42:11.786Z,29.60
2023-02-16T02:45:20.884Z,29.00
2023-02-16T02:47:49.025Z,28.17
2023-02-16T02:50:41.465Z,29.27
2023-02-16T02:53:15.628Z,31.20
2023-02-16T02:56:08.111Z,36.37
2023-02-16T02:58:55.755Z,40.83
2023-02-16T03:01:25.470Z,43.07
2023-02-16T03:03:57.078Z,52.40
2023-02-16T03:06:32.396Z,44.90
2023-02-16T03:09:07.106Z,46.17
2023-02-16T03:11:53.014Z,53.23
2023-02-16T03:14:43.537Z,58.67
2023-02-16T03:17:35.182Z,61.53
2023-02-16T03:20:26.858Z,57.90
2023-02-16T03:23:14.046Z,63.93
2023-02-16T03:26:00.831Z,65.80
2023-02-16T03:28:50.270Z,68.63
2023-02-16T03:31:23.281Z,65.53
2023-02-16T03:33:55.108Z,76.63
2023-02-16T03:36:27.794Z,65.93
2023-02-16T03:38:58.056Z,65.77
2023-02-16T03:41:33.489Z,65.93
2023-02-16T03:44:00.856Z,96.17
2023-02-16T03:46:31.310Z,76.00
2023-02-16T03:49:02.041Z,71.47
2023-02-16T03:51:32.588Z,233.23
2023-02-16T03:54:00.385Z,119.97
2023-02-16T03:56:28.144Z,95.40
2023-02-16T03:58:55.548Z,134.43
2023-02-16T04:01:23.197Z,83.33
2023-02-16T04:03:50.864Z,89.23
2023-02-16T04:06:18.358Z,116.27
2023-02-16T04:08:50.773Z,124.60
2023-02-16T04:11:36.587Z,78.53
2023-02-16T04:14:04.000Z,83.03
2023-02-16T04:16:31.722Z,149.43
2023-02-16T04:18:59.047Z,123.87
2023-02-16T04:21:26.329Z,84.73
2023-02-16T04:23:53.658Z,82.50
2023-02-16T04:26:23.366Z,88.83
2023-02-16T04:28:56.378Z,84.47
2023-02-16T04:31:23.932Z,82.00
2023-02-16T04:33:54.364Z,82.23
2023-02-16T04:36:21.648Z,105.93
2023-02-16T04:38:48.910Z,190.37
2023-02-16T04:41:16.356Z,99.80
2023-02-16T04:43:43.765Z,89.37
2023-02-16T04:46:11.260Z,99.27
2023-02-16T04:48:39.170Z,83.70
2023-02-16T04:51:06.718Z,96.47
2023-02-16T04:53:34.064Z,100.53
2023-02-16T04:56:01.318Z,104.90
2023-02-16T04:58:28.568Z,89.70
2023-02-16T05:00:56.103Z,89.40
2023-02-16T05:03:23.631Z,95.37
2023-02-16T05:05:51.061Z,96.87
2023-02-16T05:08:20.836Z,104.90
2023-02-16T05:11:11.049Z,83.93
2023-02-16T05:13:56.941Z,85.77
2023-02-16T05:16:25.011Z,92.30
2023-02-16T05:18:53.077Z,84.50
2023-02-16T05:21:32.305Z,93.00
2023-02-16T05:24:01.853Z,88.30
2023-02-16T05:26:29.863Z,82.37
2023-02-16T05:28:57.879Z,90.17
2023-02-16T05:31:26.711Z,96.90
2023-02-16T05:33:54.550Z,93.27
2023-02-16T05:36:22.988Z,98.10
2023-02-16T05:38:50.737Z,89.57
2023-02-16T05:41:24.304Z,89.93
2023-02-16T05:43:55.801Z,89.90
2023-02-16T05:46:24.901Z,90.03
2023-02-16T05:48:52.263Z,100.43
2023-02-16T05:51:20.451Z,126.17
2023-02-16T05:53:48.111Z,102.23
2023-02-16T05:56:15.874Z,103.57
2023-02-16T05:58:43.346Z,99.50
2023-02-16T06:01:11.182Z,107.00
2023-02-16T06:03:38.763Z,92.77
2023-02-16T06:06:07.315Z,95.07
2023-02-16T06:08:34.668Z,97.43
2023-02-16T06:11:02.593Z,105.13
2023-02-16T06:13:30.220Z,110.97
2023-02-16T06:15:57.609Z,103.70
2023-02-16T06:18:25.981Z,110.67
2023-02-16T06:20:53.365Z,98.27
2023-02-16T06:23:20.977Z,97.63
2023-02-16T06:25:51.859Z,88.77
2023-02-16T06:28:19.183Z,92.70
2023-02-16T06:30:46.635Z,101.43
2023-02-16T06:33:14.084Z,84.43
2023-02-16T06:35:41.599Z,84.57
2023-02-16T06:38:08.881Z,85.80
2023-02-16T06:40:36.153Z,81.63
2023-02-16T06:43:03.448Z,58.00
2023-02-16T06:45:30.712Z,65.50
2023-02-16T06:47:58.008Z,61.73
2023-02-16T06:50:25.316Z,60.07
2023-02-16T06:52:52.582Z,64.90
2023-02-16T06:55:19.862Z,61.87
2023-02-16T06:57:47.253Z,39.63
2023-02-16T07:00:16.271Z,42.17
2023-02-16T07:02:43.872Z,36.83
2023-02-16T07:05:11.308Z,37.60
2023-02-16T07:07:38.766Z,35.37
2023-02-16T07:10:06.901Z,35.83
2023-02-16T07:12:34.252Z,39.90
2023-02-16T07:15:01.533Z,39.57
2023-02-16T07:17:28.802Z,40.87
2023-02-16T07:19:58.272Z,42.30
2023-02-16T07:22:26.906Z,45.20
2023-02-16T07:24:57.441Z,48.40
2023-02-16T07:27:25.693Z,51.93
2023-02-16T07:29:53.139Z,47.80
2023-02-16T07:32:20.439Z,46.13
2023-02-16T07:34:47.765Z,44.43
2023-02-16T07:37:15.080Z,47.70
2023-02-16T07:39:42.358Z,46.03
2023-02-16T07:42:09.659Z,47.73
2023-02-16T07:44:36.925Z,40.70
2023-02-16T07:47:05.089Z,40.57
2023-02-16T07:49:32.428Z,45.37
2023-02-16T07:51:59.744Z,47.97
2023-02-16T07:54:27.035Z,45.60
2023-02-16T07:56:54.294Z,49.27
2023-02-16T07:59:21.572Z,38.70
2023-02-16T08:01:49.023Z,51.97
2023-02-16T08:04:16.421Z,50.33
2023-02-16T08:06:44.309Z,51.10
2023-02-16T08:09:11.573Z,51.63
2023-02-16T08:11:38.824Z,50.73
2023-02-16T08:14:06.297Z,52.33
2023-02-16T08:16:33.879Z,45.10
2023-02-16T08:19:01.601Z,53.87
2023-02-16T08:21:32.186Z,59.30
2023-02-16T08:24:04.876Z,52.20
2023-02-16T08:26:40.361Z,45.90
2023-02-16T08:29:15.225Z,47.27
2023-02-16T08:31:42.976Z,51.47
2023-02-16T08:34:10.817Z,47.77
2023-02-16T08:36:40.053Z,44.60
2023-02-16T08:39:11.960Z,41.93
2023-02-16T08:41:39.677Z,39.97
2023-02-16T08:44:08.732Z,41.33
2023-02-16T08:46:40.897Z,38.20
2023-02-16T08:49:09.044Z,34.67
2023-02-16T08:51:40.921Z,30.57
2023-02-16T08:54:09.309Z,31.77
2023-02-16T08:56:36.797Z,33.10
2023-02-16T08:59:04.110Z,32.47
2023-02-16T09:01:32.343Z,40.63
2023-02-16T09:03:59.795Z,33.97
2023-02-16T09:06:27.442Z,37.37
2023-02-16T09:08:56.960Z,34.07
2023-02-16T09:11:25.550Z,36.30
2023-02-16T09:13:53.245Z,39.00
2023-02-16T09:16:27.933Z,35.50
2023-02-16T09:18:57.576Z,39.57
2023-02-16T09:21:25.932Z,39.37
2023-02-16T09:23:55.782Z,39.93
2023-02-16T09:26:24.602Z,39.50
2023-02-16T09:28:53.625Z,42.20
2023-02-16T09:31:26.982Z,41.80
2023-02-16T09:34:03.977Z,39.53
2023-02-16T09:36:32.068Z,38.47
2023-02-16T09:39:00.194Z,39.13
2023-02-16T09:41:54.961Z,52.97
2023-02-16T09:44:40.301Z,36.63
2023-02-16T09:47:37.199Z,35.00
2023-02-16T09:50:50.317Z,29.60
2023-02-16T09:53:30.242Z,31.40
2023-02-16T09:56:03.399Z,28.93
2023-02-16T09:58:48.042Z,31.00
2023-02-16T10:01:47.101Z,29.97
2023-02-16T10:04:31.204Z,33.30
2023-02-16T10:07:31.651Z,36.60
2023-02-16T10:10:01.565Z,28.43
2023-02-16T10:12:37.312Z,29.30
2023-02-16T10:15:14.186Z,26.77
2023-02-16T10:17:49.036Z,27.73
2023-02-16T10:20:22.126Z,30.27
2023-02-16T10:22:59.507Z,33.23
2023-02-16T10:25:48.764Z,33.23
2023-02-16T10:28:16.077Z,39.37
2023-02-16T10:30:58.828Z,32.33
2023-02-16T10:33:43.906Z,34.17
2023-02-16T10:36:51.868Z,36.07
2023-02-16T10:39:21.945Z,36.50
2023-02-16T10:42:15.178Z,41.43
2023-02-16T10:44:51.148Z,39.53
2023-02-16T10:47:37.839Z,42.50
2023-02-16T10:50:07.429Z,37.37
2023-02-16T10:52:39.744Z,41.37
2023-02-16T10:55:07.353Z,41.40
2023-02-16T10:57:34.690Z,36.60
2023-02-16T11:00:24.811Z,38.70
2023-02-16T11:02:53.083Z,40.83
2023-02-16T11:05:26.324Z,41.40
2023-02-16T11:08:01.793Z,41.23
2023-02-16T11:10:55.743Z,42.80
2023-02-16T11:13:35.935Z,41.57
2023-02-16T11:16:12.051Z,38.20
2023-02-16T11:18:43.130Z,48.23
2023-02-16T11:21:12.278Z,58.00
2023-02-16T11:23:44.909Z,43.33
2023-02-16T11:26:12.157Z,38.63
2023-02-16T11:28:45.164Z,41.97
2023-02-16T11:31:39.688Z,45.20
2023-02-16T11:34:25.537Z,44.63
2023-02-16T11:37:13.300Z,37.77
2023-02-16T11:39:47.637Z,42.27
2023-02-16T11:42:44.118Z,46.23
2023-02-16T11:45:25.854Z,38.40
2023-02-16T11:48:14.416Z,36.40
2023-02-16T11:50:57.331Z,38.83
2023-02-16T11:53:28.223Z,37.17
2023-02-16T11:56:16.982Z,37.07
2023-02-16T11:58:45.052Z,34.70
2023-02-16T12:01:37.234Z,50.67
2023-02-16T12:04:50.606Z,36.40
2023-02-16T12:07:36.740Z,41.67
2023-02-16T12:10:10.064Z,38.00
2023-02-16T12:13:17.356Z,39.43
2023-02-16T12:15:58.839Z,41.07
2023-02-16T12:18:42.792Z,40.00
2023-02-16T12:21:20.516Z,43.77
2023-02-16T12:24:13.909Z,39.37
2023-02-16T12:26:56.573Z,48.03
2023-02-16T12:29:23.813Z,47.03
2023-02-16T12:32:14.069Z,37.70
2023-02-16T12:34:54.413Z,41.67
2023-02-16T12:37:47.186Z,41.27
2023-02-16T12:40:14.470Z,46.63
2023-02-16T12:42:53.391Z,47.50
2023-02-16T12:45:23.923Z,53.53
2023-02-16T12:48:16.067Z,54.13
2023-02-16T12:50:45.998Z,51.57
2023-02-16T12:53:37.507Z,51.87
2023-02-16T12:56:12.586Z,54.07
2023-02-16T12:58:43.805Z,58.47
2023-02-16T13:01:21.952Z,65.97
2023-02-16T13:04:24.125Z,65.40
2023-02-16T13:07:17.971Z,70.20
2023-02-16T13:10:03.137Z,62.23
2023-02-16T13:12:41.723Z,64.53
2023-02-16T13:15:23.617Z,71.53
2023-02-16T13:18:17.137Z,63.40
2023-02-16T13:20:53.824Z,63.30
2023-02-16T13:23:33.179Z,70.10
2023-02-16T13:26:18.612Z,63.83
2023-02-16T13:29:12.026Z,61.03
2023-02-16T13:32:05.683Z,59.60
2023-02-16T13:34:32.984Z,62.60
2023-02-16T13:37:24.695Z,58.30
2023-02-16T13:39:57.891Z,65.93
2023-02-16T13:42:32.280Z,60.83
2023-02-16T13:45:02.813Z,86.23
2023-02-16T13:47:33.259Z,61.53
2023-02-16T13:50:03.575Z,63.97
2023-02-16T13:52:35.222Z,64.00
2023-02-16T13:55:05.639Z,63.93
2023-02-16T13:57:50.981Z,73.90
2023-02-16T14:00:32.971Z,65.00
2023-02-16T14:03:37.992Z,69.83
2023-02-16T14:06:34.171Z,68.27
2023-02-16T14:09:11.159Z,69.53
2023-02-16T14:12:25.807Z,66.17
2023-02-16T14:14:53.072Z,73.67
2023-02-16T14:17:21.684Z,106.80
2023-02-16T14:20:29.056Z,62.17
2023-02-16T14:22:59.940Z,97.70
2023-02-16T14:25:30.868Z,63.60
2023-02-16T14:28:26.896Z,62.63
2023-02-16T14:31:02.210Z,80.13
2023-02-16T14:34:00.464Z,64.60
2023-02-16T14:36:29.260Z,60.20
2023-02-16T14:38:59.099Z,62.83
2023-02-16T14:41:28.550Z,78.77
2023-02-16T14:44:05.079Z,70.93
2023-02-16T14:46:57.122Z,66.80
2023-02-16T14:50:06.116Z,72.60
2023-02-16T14:52:47.076Z,65.27
2023-02-16T14:55:27.252Z,51.67
2023-02-16T14:58:41.391Z,44.00
2023-02-16T15:01:14.234Z,47.40
2023-02-16T15:03:48.187Z,47.17
2023-02-16T15:06:30.995Z,47.63
2023-02-16T15:09:01.589Z,46.07
2023-02-16T15:11:31.614Z,55.77
2023-02-16T15:14:11.100Z,47.07
2023-02-16T15:16:40.690Z,49.60
2023-02-16T15:19:21.657Z,57.70
2023-02-16T15:22:27.082Z,63.83
2023-02-16T15:25:17.425Z,67.30
2023-02-16T15:28:00.326Z,67.20
2023-02-16T15:30:33.559Z,62.40
2023-02-16T15:33:06.765Z,66.63
2023-02-16T15:35:43.542Z,71.47
2023-02-16T15:38:23.840Z,72.40
2023-02-16T15:40:55.722Z,64.87
2023-02-16T15:43:27.157Z,60.33
2023-02-16T15:45:54.957Z,60.77
2023-02-16T15:48:35.382Z,65.57
2023-02-16T15:51:11.098Z,55.87
2023-02-16T15:54:02.840Z,57.53
2023-02-16T15:56:48.736Z,63.30
2023-02-16T15:59:28.011Z,58.97
2023-02-16T16:02:31.709Z,58.07
2023-02-16T16:05:02.350Z,62.70
2023-02-16T16:07:35.552Z,59.57
2023-02-16T16:10:09.512Z,61.63
2023-02-16T16:12:37.009Z,58.37
2023-02-16T16:15:04.979Z,60.90
2023-02-16T16:17:37.279Z,60.97
2023-02-16T16:20:23.645Z,56.73
2023-02-16T16:23:07.570Z,55.93
2023-02-16T16:25:41.944Z,60.47
2023-02-16T16:28:13.891Z,82.97
2023-02-16T16:30:43.910Z,69.43
2023-02-16T16:33:13.551Z,83.10
2023-02-16T16:35:48.257Z,67.50
2023-02-16T16:38:37.711Z,99.00
2023-02-16T16:41:05.511Z,113.70
2023-02-16T16:43:36.202Z,75.53
2023-02-16T16:46:21.886Z,72.47
2023-02-16T16:48:53.356Z,76.23
2023-02-16T16:51:41.895Z,81.70
2023-02-16T16:54:33.071Z,76.73
2023-02-16T16:57:08.070Z,62.87
2023-02-16T16:59:36.887Z,80.40
2023-02-16T17:02:04.374Z,71.63
2023-02-16T17:04:32.391Z,71.70
2023-02-16T17:07:00.914Z,64.27
2023-02-16T17:09:28.348Z,56.13
2023-02-16T17:11:57.759Z,60.33
2023-02-16T17:14:27.638Z,64.30
2023-02-16T17:16:56.384Z,61.73
2023-02-16T17:19:24.353Z,62.63
2023-02-16T17:21:52.885Z,63.73
2023-02-16T17:24:26.868Z,61.33
2023-02-16T17:26:54.393Z,59.03
2023-02-16T17:29:22.605Z,58.00
2023-02-16T17:31:51.267Z,66.83
2023-02-16T17:34:19.388Z,64.27
2023-02-16T17:36:46.733Z,62.07
2023-02-16T17:39:15.082Z,67.70
2023-02-16T17:41:42.440Z,66.40
2023-02-16T17:44:09.747Z,73.23
2023-02-16T17:46:37.026Z,75.70
2023-02-16T17:49:05.558Z,74.57
2023-02-16T17:51:36.233Z,66.70
2023-02-16T17:54:06.570Z,60.87
2023-02-16T17:56:36.237Z,66.47
2023-02-16T17:59:04.045Z,61.60
2023-02-16T18:01:32.980Z,62.20
2023-02-16T18:04:04.207Z,65.83
2023-02-16T18:06:31.679Z,72.23
2023-02-16T18:08:58.960Z,70.43
2023-02-16T18:11:26.322Z,95.23
2023-02-16T18:13:55.097Z,77.80
2023-02-16T18:16:27.084Z,68.60
2023-02-16T18:18:59.212Z,80.93
2023-02-16T18:21:27.888Z,67.60
2023-02-16T18:23:55.687Z,60.07
2023-02-16T18:26:27.596Z,59.00
2023-02-16T18:28:55.560Z,65.60
2023-02-16T18:31:25.405Z,65.03
2023-02-16T18:33:54.113Z,70.10
2023-02-16T18:36:22.539Z,62.27
2023-02-16T18:38:51.521Z,53.53
2023-02-16T18:41:22.078Z,60.90
2023-02-16T18:43:50.849Z,57.93
2023-02-16T18:46:20.611Z,57.57
2023-02-16T18:48:50.344Z,56.60
2023-02-16T18:51:18.735Z,60.90
2023-02-16T18:53:49.025Z,55.53
2023-02-16T18:56:17.929Z,62.83
2023-02-16T18:58:46.397Z,68.63
2023-02-16T19:01:24.842Z,69.40
2023-02-16T19:03:53.356Z,59.87
2023-02-16T19:06:22.205Z,68.03
2023-02-16T19:08:51.276Z,59.43
2023-02-16T19:11:21.508Z,67.43
2023-02-16T19:13:49.389Z,65.73
2023-02-16T19:16:17.683Z,67.57
2023-02-16T19:18:48.541Z,65.93
2023-02-16T19:21:15.928Z,70.37
2023-02-16T19:23:43.436Z,65.87
2023-02-16T19:26:13.909Z,54.37
2023-02-16T19:28:42.061Z,66.37
2023-02-16T19:31:20.747Z,69.77
2023-02-16T19:33:49.143Z,57.77
2023-02-16T19:36:18.583Z,55.57
2023-02-16T19:38:46.628Z,61.23
2023-02-16T19:41:25.935Z,53.43
2023-02-16T19:43:53.471Z,55.97
2023-02-16T19:46:22.020Z,64.67
2023-02-16T19:48:49.412Z,60.93
2023-02-16T19:51:16.911Z,58.93
2023-02-16T19:53:44.530Z,54.83
2023-02-16T19:56:15.294Z,55.80
2023-02-16T19:58:42.712Z,52.47
2023-02-16T20:01:12.500Z,50.13
2023-02-16T20:03:40.045Z,53.03
2023-02-16T20:06:17.864Z,53.90
2023-02-16T20:08:46.579Z,53.03
2023-02-16T20:11:14.760Z,55.70
2023-02-16T20:13:42.450Z,56.67
2023-02-16T20:16:11.484Z,51.50
2023-02-16T20:18:41.918Z,53.10
2023-02-16T20:21:21.872Z,55.00
2023-02-16T20:23:51.048Z,54.43
2023-02-16T20:26:22.084Z,54.37
2023-02-16T20:28:50.676Z,56.93
2023-02-16T20:31:24.639Z,52.70
2023-02-16T20:33:52.637Z,55.40
2023-02-16T20:36:20.173Z,63.20
2023-02-16T20:38:48.144Z,57.47
2023-02-16T20:41:15.978Z,58.80
2023-02-16T20:43:43.460Z,58.63
2023-02-16T20:46:13.054Z,67.67
2023-02-16T20:48:40.436Z,68.93
2023-02-16T20:51:08.639Z,63.67
2023-02-16T20:53:36.346Z,55.50
2023-02-16T20:56:16.629Z,68.60
2023-02-16T20:58:46.014Z,102.60
2023-02-16T21:01:28.316Z,83.23
2023-02-16T21:03:57.351Z,86.97
2023-02-16T21:06:25.824Z,71.20
2023-02-16T21:08:54.091Z,67.50
2023-02-16T21:11:22.367Z,62.97
2023-02-16T21:13:49.720Z,68.47
2023-02-16T21:16:17.058Z,76.80
2023-02-16T21:18:44.908Z,77.27
2023-02-16T21:21:15.613Z,69.00
2023-02-16T21:23:48.800Z,67.23
2023-02-16T21:26:17.370Z,65.87
2023-02-16T21:28:45.109Z,58.13
2023-02-16T21:31:15.534Z,60.40
2023-02-16T21:33:43.083Z,61.27
2023-02-16T21:36:16.815Z,66.33
2023-02-16T21:38:45.044Z,62.43
2023-02-16T21:41:25.452Z,57.90
2023-02-16T21:44:06.454Z,58.67
2023-02-16T21:46:41.856Z,60.97
2023-02-16T21:49:18.029Z,57.87
2023-02-16T21:51:47.145Z,55.17
2023-02-16T21:54:17.191Z,55.17
2023-02-16T21:56:49.085Z,60.23
2023-02-16T21:59:18.982Z,52.77
2023-02-16T22:01:51.014Z,58.20
2023-02-16T22:04:22.168Z,51.60
2023-02-16T22:06:50.690Z,59.10
2023-02-16T22:09:20.699Z,52.10
2023-02-16T22:11:48.790Z,57.10
2023-02-16T22:14:16.174Z,52.97
2023-02-16T22:16:45.768Z,55.20
2023-02-16T22:19:15.305Z,51.80
2023-02-16T22:21:44.250Z,57.67
2023-02-16T22:24:13.736Z,61.50
2023-02-16T22:26:41.743Z,57.67
2023-02-16T22:29:09.618Z,57.23
2023-02-16T22:31:37.330Z,50.20
2023-02-16T22:34:08.469Z,55.53
2023-02-16T22:36:37.881Z,72.57
2023-02-16T22:39:05.886Z,57.47
2023-02-16T22:41:34.574Z,63.10
2023-02-16T22:44:02.202Z,63.23
2023-02-16T22:46:30.221Z,59.77
2023-02-16T22:48:58.885Z,59.67
2023-02-16T22:51:29.418Z,58.37
2023-02-16T22:54:01.466Z,60.43
2023-02-16T22:56:30.148Z,60.60
2023-02-16T22:58:59.495Z,58.67
2023-02-16T23:01:29.343Z,61.93
2023-02-16T23:03:59.484Z,59.47
2023-02-16T23:06:29.876Z,63.53
2023-02-16T23:09:19.049Z,55.97
2023-02-16T23:11:46.916Z,59.90
2023-02-16T23:14:17.685Z,68.17
2023-02-16T23:16:46.892Z,67.93
2023-02-16T23:19:17.843Z,63.60
2023-02-16T23:21:45.738Z,61.33
2023-02-16T23:24:20.037Z,63.40
2023-02-16T23:26:48.032Z,61.47
2023-02-16T23:29:15.465Z,57.27
2023-02-16T23:31:44.500Z,54.70
2023-02-16T23:34:12.385Z,54.57
2023-02-16T23:36:40.291Z,57.43
2023-02-16T23:39:11.734Z,63.07
2023-02-16T23:41:40.176Z,69.23
2023-02-16T23:44:10.272Z,73.60
2023-02-16T23:46:37.627Z,70.57
2023-02-16T23:49:05.004Z,76.33
2023-02-16T23:51:32.465Z,78.07
2023-02-16T23:53:59.760Z,68.80
2023-02-16T23:56:28.589Z,76.67
2023-02-16T23:59:00.652Z,72.07
